createdAt,value
2022-09-27T00:01:52.024Z,1.80
2022-09-27T00:06:13.733Z,1.65
2022-09-27T00:10:15.666Z,1.15
2022-09-27T00:14:18.415Z,1.60
2022-09-27T00:18:19.858Z,1.40
2022-09-27T00:22:21.869Z,1.70
2022-09-27T00:26:23.646Z,1.55
2022-09-27T00:30:25.651Z,1.63
2022-09-27T00:34:30.181Z,1.52
2022-09-27T00:38:31.636Z,1.65
2022-09-27T00:42:33.070Z,1.50
2022-09-27T00:46:50.685Z,1.52
2022-09-27T00:50:56.857Z,1.40
2022-09-27T00:55:04.613Z,1.48
2022-09-27T00:59:16.374Z,1.67
2022-09-27T01:03:30.402Z,1.40
2022-09-27T01:07:31.892Z,1.52
2022-09-27T01:11:57.770Z,1.50
2022-09-27T01:16:16.193Z,1.40
2022-09-27T01:20:55.275Z,1.23
2022-09-27T01:25:15.353Z,1.40
2022-09-27T01:29:36.991Z,1.45
2022-09-27T01:33:47.498Z,1.17
2022-09-27T01:38:12.675Z,1.45
2022-09-27T01:42:35.982Z,1.27
2022-09-27T01:46:42.348Z,1.50
2022-09-27T01:51:16.025Z,1.40
2022-09-27T01:55:21.717Z,1.17
2022-09-27T01:59:38.525Z,1.40
2022-09-27T02:03:46.013Z,1.20
2022-09-27T02:07:56.454Z,1.35
2022-09-27T02:12:05.477Z,1.40
2022-09-27T02:16:21.240Z,1.48
2022-09-27T02:20:40.255Z,1.60
2022-09-27T02:24:51.135Z,1.30
2022-09-27T02:29:05.725Z,1.40
2022-09-27T02:33:07.300Z,1.50
2022-09-27T02:37:08.915Z,1.25
2022-09-27T02:41:21.940Z,1.00
2022-09-27T02:45:24.457Z,1.40
2022-09-27T02:49:49.915Z,0.98
2022-09-27T02:54:10.003Z,1.00
2022-09-27T02:58:17.475Z,1.15
2022-09-27T03:02:29.970Z,1.42
2022-09-27T03:06:32.888Z,1.50
2022-09-27T03:10:34.363Z,1.40
2022-09-27T03:14:35.827Z,1.60
2022-09-27T03:18:37.334Z,1.83
2022-09-27T03:22:40.618Z,1.58
2022-09-27T03:26:42.032Z,2.00
2022-09-27T03:30:45.772Z,1.50
2022-09-27T03:34:47.228Z,1.90
2022-09-27T03:38:48.711Z,1.85
2022-09-27T03:42:51.005Z,1.77
2022-09-27T03:46:52.544Z,1.70
2022-09-27T03:50:53.992Z,1.40
2022-09-27T03:54:59.730Z,1.73
2022-09-27T03:59:03.668Z,2.00
2022-09-27T04:03:05.213Z,1.77
2022-09-27T04:07:06.758Z,1.90
2022-09-27T04:11:08.163Z,2.05
2022-09-27T04:15:10.292Z,1.58
2022-09-27T04:19:11.759Z,2.15
2022-09-27T04:23:13.545Z,1.70
2022-09-27T04:27:15.936Z,2.05
2022-09-27T04:31:17.457Z,1.70
2022-09-27T04:35:37.516Z,2.15
2022-09-27T04:39:39.737Z,1.95
2022-09-27T04:43:41.363Z,2.03
2022-09-27T04:47:47.702Z,2.05
2022-09-27T04:51:49.152Z,1.63
2022-09-27T04:55:52.912Z,1.90
2022-09-27T04:59:54.318Z,2.08
2022-09-27T05:03:55.741Z,2.05
2022-09-27T05:07:57.147Z,1.83
2022-09-27T05:11:59.067Z,2.10
2022-09-27T05:16:04.662Z,1.83
2022-09-27T05:20:06.382Z,2.20
2022-09-27T05:24:07.823Z,1.92
2022-09-27T05:28:09.487Z,2.20
2022-09-27T05:32:11.481Z,2.67
2022-09-27T05:36:13.139Z,2.28
2022-09-27T05:40:36.663Z,2.33
2022-09-27T05:44:36.735Z,2.38
2022-09-27T05:48:38.261Z,2.40
2022-09-27T05:52:39.677Z,2.05
2022-09-27T05:56:41.104Z,2.38
2022-09-27T06:00:43.635Z,2.47
2022-09-27T06:04:45.131Z,2.55
2022-09-27T06:08:46.674Z,2.45
2022-09-27T06:12:48.166Z,2.15
2022-09-27T06:16:49.616Z,2.53
2022-09-27T06:20:51.695Z,2.20
2022-09-27T06:24:53.199Z,2.38
2022-09-27T06:28:54.934Z,2.40
2022-09-27T06:33:01.344Z,2.25
2022-09-27T06:37:03.106Z,2.75
2022-09-27T06:41:09.621Z,2.70
2022-09-27T06:45:12.284Z,2.55
2022-09-27T06:49:13.760Z,2.50
2022-09-27T06:53:16.953Z,2.15
2022-09-27T06:57:38.306Z,2.50
2022-09-27T07:01:39.843Z,2.45
2022-09-27T07:05:43.227Z,2.78
2022-09-27T07:09:44.598Z,2.70
2022-09-27T07:13:46.003Z,2.33
2022-09-27T07:17:48.571Z,2.10
2022-09-27T07:21:51.319Z,2.72
2022-09-27T07:25:52.727Z,1.80
2022-09-27T07:29:54.175Z,2.25
2022-09-27T07:33:55.621Z,2.58
2022-09-27T07:37:58.110Z,2.50
2022-09-27T07:42:00.223Z,2.45
2022-09-27T07:46:01.704Z,2.40
2022-09-27T07:50:05.139Z,1.88
2022-09-27T07:54:08.726Z,2.58
2022-09-27T07:58:11.995Z,2.15
2022-09-27T08:02:17.993Z,1.92
2022-09-27T08:06:19.513Z,2.00
2022-09-27T08:10:20.906Z,2.00
2022-09-27T08:14:23.324Z,1.80
2022-09-27T08:18:24.938Z,2.65
2022-09-27T08:22:26.392Z,2.30
2022-09-27T08:26:28.663Z,2.45
2022-09-27T08:30:32.293Z,1.90
2022-09-27T08:34:34.073Z,2.15
2022-09-27T08:38:35.539Z,2.40
2022-09-27T08:42:48.546Z,1.90
2022-09-27T08:47:01.021Z,2.30
2022-09-27T08:51:05.080Z,1.83
2022-09-27T08:55:19.230Z,2.10
2022-09-27T08:59:25.953Z,2.38
2022-09-27T09:03:30.044Z,2.60
2022-09-27T09:07:44.206Z,2.10
2022-09-27T09:12:20.888Z,2.55
2022-09-27T09:16:51.294Z,2.08
2022-09-27T09:21:17.032Z,2.22
2022-09-27T09:25:50.131Z,2.17
2022-09-27T09:30:19.809Z,2.03
2022-09-27T09:34:33.954Z,1.97
2022-09-27T09:38:53.610Z,2.10
2022-09-27T09:43:13.366Z,1.95
2022-09-27T09:47:29.475Z,2.35
2022-09-27T09:52:08.033Z,2.20
2022-09-27T09:56:20.396Z,2.42
2022-09-27T10:00:21.851Z,2.22
2022-09-27T10:04:27.897Z,2.85
2022-09-27T10:08:29.373Z,2.72
2022-09-27T10:12:31.212Z,2.00
2022-09-27T10:16:32.818Z,2.42
2022-09-27T10:20:47.479Z,2.65
2022-09-27T10:24:57.091Z,2.20
2022-09-27T10:33:04.187Z,1.90
2022-09-27T10:37:17.954Z,2.20
2022-09-27T10:41:45.689Z,1.83
2022-09-27T10:45:47.360Z,1.80
2022-09-27T10:49:52.809Z,1.60
2022-09-27T10:53:58.641Z,1.70
2022-09-27T10:58:00.367Z,1.73
2022-09-27T11:02:03.032Z,1.67
2022-09-27T11:06:28.933Z,3.40
2022-09-27T11:10:37.621Z,2.00
2022-09-27T11:14:40.167Z,1.90
2022-09-27T11:18:56.886Z,1.55
2022-09-27T11:23:04.480Z,2.15
2022-09-27T11:27:37.309Z,2.13
2022-09-27T11:31:49.577Z,1.92
2022-09-27T11:36:42.211Z,1.50
2022-09-27T11:41:08.377Z,1.15
2022-09-27T11:45:41.274Z,1.40
2022-09-27T11:50:26.818Z,1.33
2022-09-27T11:54:35.739Z,1.05
2022-09-27T11:58:49.395Z,1.70
2022-09-27T12:03:08.741Z,1.30
2022-09-27T12:07:33.288Z,1.33
2022-09-27T12:11:42.868Z,0.93
2022-09-27T12:15:47.762Z,1.40
2022-09-27T12:19:56.340Z,1.40
2022-09-27T12:23:58.784Z,1.83
2022-09-27T12:28:18.655Z,1.88
2022-09-27T12:32:31.500Z,1.85
2022-09-27T12:36:38.836Z,2.20
2022-09-27T12:40:44.416Z,1.60
2022-09-27T12:44:50.586Z,1.60
2022-09-27T12:48:57.456Z,1.60
2022-09-27T12:53:13.892Z,1.65
2022-09-27T12:57:54.204Z,1.65
2022-09-27T13:02:22.242Z,1.80
2022-09-27T13:06:35.732Z,1.30
2022-09-27T13:10:41.491Z,1.77
2022-09-27T13:15:13.471Z,1.20
2022-09-27T13:19:36.399Z,1.38
2022-09-27T13:23:40.823Z,1.85
2022-09-27T13:27:42.564Z,1.70
2022-09-27T13:31:57.806Z,1.27
2022-09-27T13:36:16.632Z,1.23
2022-09-27T13:40:27.726Z,1.70
2022-09-27T13:45:13.803Z,1.27
2022-09-27T13:49:21.976Z,1.70
2022-09-27T13:53:30.466Z,1.08
2022-09-27T13:57:42.336Z,0.63
2022-09-27T14:01:58.314Z,1.17
2022-09-27T14:06:08.453Z,1.20
2022-09-27T14:10:16.218Z,1.42
2022-09-27T14:14:23.207Z,1.27
2022-09-27T14:18:24.697Z,1.23
2022-09-27T14:22:26.216Z,1.20
2022-09-27T14:26:28.084Z,1.55
2022-09-27T14:30:30.561Z,1.80
2022-09-27T14:34:32.209Z,1.80
2022-09-27T14:38:38.196Z,1.48
2022-09-27T14:42:40.050Z,1.95
2022-09-27T14:46:41.663Z,1.60
2022-09-27T14:51:06.157Z,1.90
2022-09-27T14:55:16.070Z,1.77
2022-09-27T14:59:27.104Z,2.10
2022-09-27T15:03:37.563Z,8.85
2022-09-27T15:07:42.075Z,2.65
2022-09-27T15:11:45.198Z,2.00
2022-09-27T15:15:48.817Z,2.30
2022-09-27T15:20:01.974Z,2.42
2022-09-27T15:24:04.530Z,3.08
2022-09-27T15:28:18.309Z,2.90
2022-09-27T15:32:26.020Z,2.47
2022-09-27T15:36:51.193Z,2.63
2022-09-27T15:40:52.648Z,2.63
2022-09-27T15:44:58.500Z,2.70
2022-09-27T15:49:33.478Z,1.88
2022-09-27T15:53:34.923Z,2.45
2022-09-27T15:57:36.327Z,2.88
2022-09-27T16:01:38.353Z,2.67
2022-09-27T16:05:43.880Z,2.67
2022-09-27T16:09:46.739Z,2.97
2022-09-27T16:13:50.180Z,2.67
2022-09-27T16:17:51.555Z,2.88
2022-09-27T16:21:53.007Z,4.82
2022-09-27T16:25:54.437Z,3.80
2022-09-27T16:29:57.808Z,3.92
2022-09-27T16:34:00.355Z,3.63
2022-09-27T16:38:01.795Z,3.38
2022-09-27T16:42:05.877Z,3.35
2022-09-27T16:46:11.927Z,3.78
2022-09-27T16:50:33.071Z,4.45
2022-09-27T16:54:34.635Z,4.97
2022-09-27T16:58:37.018Z,4.20
2022-09-27T17:02:38.582Z,4.18
2022-09-27T17:06:40.063Z,3.95
2022-09-27T17:10:44.985Z,3.75
2022-09-27T17:14:46.431Z,3.22
2022-09-27T17:18:47.892Z,3.30
2022-09-27T17:22:49.359Z,3.53
2022-09-27T17:26:51.219Z,3.65
2022-09-27T17:30:53.155Z,4.10
2022-09-27T17:34:57.330Z,4.10
2022-09-27T17:38:59.499Z,3.63
2022-09-27T17:43:01.148Z,3.33
2022-09-27T17:47:21.143Z,3.00
2022-09-27T17:51:23.593Z,3.50
2022-09-27T17:55:25.914Z,2.60
2022-09-27T17:59:27.389Z,3.10
2022-09-27T18:03:28.949Z,3.00
2022-09-27T18:07:30.755Z,2.85
2022-09-27T18:11:33.207Z,3.03
2022-09-27T18:15:37.203Z,2.30
2022-09-27T18:19:39.160Z,3.03
2022-09-27T18:23:42.091Z,2.20
2022-09-27T18:27:44.307Z,1.88
2022-09-27T18:31:48.935Z,2.20
2022-09-27T18:35:50.684Z,1.50
2022-09-27T18:39:52.119Z,1.75
2022-09-27T18:43:57.064Z,2.13
2022-09-27T18:47:58.544Z,2.30
2022-09-27T18:52:00.089Z,1.50
2022-09-27T18:56:10.313Z,1.42
2022-09-27T19:00:12.430Z,1.75
2022-09-27T19:04:24.763Z,2.72
2022-09-27T19:08:26.772Z,2.28
2022-09-27T19:12:28.235Z,2.47
2022-09-27T19:16:30.379Z,2.65
2022-09-27T19:20:33.334Z,2.38
2022-09-27T19:24:34.753Z,2.08
2022-09-27T19:28:38.316Z,1.73
2022-09-27T19:32:39.807Z,1.90
2022-09-27T19:36:41.182Z,1.67
2022-09-27T19:40:42.695Z,1.92
2022-09-27T19:44:44.181Z,1.27
2022-09-27T19:48:49.049Z,1.80
2022-09-27T19:52:50.713Z,1.33
2022-09-27T19:56:52.310Z,1.30
2022-09-27T20:01:06.483Z,1.30
2022-09-27T20:05:07.949Z,1.80
2022-09-27T20:09:09.965Z,1.13
2022-09-27T20:13:11.593Z,1.52
2022-09-27T20:17:13.490Z,1.05
2022-09-27T20:21:15.849Z,1.60
2022-09-27T20:25:17.224Z,2.15
2022-09-27T20:29:18.756Z,1.58
2022-09-27T20:33:38.699Z,1.10
2022-09-27T20:37:40.175Z,1.30
2022-09-27T20:41:44.004Z,1.80
2022-09-27T20:45:45.406Z,1.38
2022-09-27T20:49:46.785Z,1.23
2022-09-27T20:53:51.237Z,1.83
2022-09-27T20:57:57.795Z,1.45
2022-09-27T21:01:59.455Z,1.05
2022-09-27T21:06:00.987Z,1.15
2022-09-27T21:10:02.390Z,1.27
2022-09-27T21:14:03.983Z,1.38
2022-09-27T21:18:05.528Z,2.65
2022-09-27T21:22:06.931Z,3.42
2022-09-27T21:26:11.580Z,2.20
2022-09-27T21:30:13.499Z,1.50
2022-09-27T21:34:14.887Z,2.00
2022-09-27T21:38:16.601Z,1.85
2022-09-27T21:42:18.111Z,1.73
2022-09-27T21:46:23.435Z,2.60
2022-09-27T21:50:24.925Z,1.75
2022-09-27T21:54:26.421Z,2.05
2022-09-27T21:58:28.007Z,1.50
2022-09-27T22:02:30.012Z,2.08
2022-09-27T22:06:34.380Z,2.13
2022-09-27T22:10:35.735Z,2.45
2022-09-27T22:14:37.086Z,2.30
2022-09-27T22:18:38.834Z,1.90
2022-09-27T22:22:40.197Z,2.17
2022-09-27T22:26:45.355Z,2.33
2022-09-27T22:30:46.768Z,2.33
2022-09-27T22:34:49.357Z,2.10
2022-09-27T22:38:51.686Z,2.40
2022-09-27T22:42:53.275Z,2.35
2022-09-27T22:46:54.703Z,2.53
2022-09-27T22:50:57.835Z,2.78
2022-09-27T22:54:59.292Z,2.67
2022-09-27T22:59:00.863Z,2.35
2022-09-27T23:03:02.256Z,2.40
2022-09-27T23:07:03.625Z,3.03
2022-09-27T23:11:07.390Z,2.40
2022-09-27T23:15:09.489Z,2.33
2022-09-27T23:19:10.916Z,2.70
2022-09-27T23:23:15.388Z,2.92
2022-09-27T23:27:35.428Z,2.53
2022-09-27T23:31:36.958Z,2.65
2022-09-27T23:35:39.438Z,2.60
2022-09-27T23:39:40.801Z,2.50
2022-09-27T23:43:42.571Z,2.47
2022-09-27T23:47:44.177Z,2.65
2022-09-27T23:51:45.633Z,2.38
2022-09-27T23:55:47.148Z,2.47
2022-09-27T23:59:48.577Z,2.65
